Time;durP1;ratioP1;P1;durP2;ratioP2;P2;SDS_P1;SDS_P2;PMS_P1;PMS_P2;Temp;Humidity;BMP_temperature;BMP_pressure;BME280_temperature;BME280_humidity;BME280_pressure;Samples;Min_cycle;Max_cycle;Signal;HPM_P1;HPM_P2
2021/07/07 00:02:06;;;;;;;1.17;0.32;;;;;;;13.27;100.00;98622.56;5059616;28;20516;-77
2021/07/07 00:05:11;;;;;;;0.43;0.35;;;;;;;13.21;100.00;98618.31;5050565;28;20059;-78
2021/07/07 00:08:14;;;;;;;0.20;0.20;;;;;;;13.20;100.00;98623.16;5050613;28;20060;-77
2021/07/07 00:11:18;;;;;;;0.45;0.38;;;;;;;13.21;100.00;98618.31;5058218;28;20055;-78
2021/07/07 00:14:22;;;;;;;0.63;0.63;;;;;;;13.27;100.00;98625.38;5072598;28;20040;-77
2021/07/07 00:17:26;;;;;;;0.57;0.47;;;;;;;13.17;100.00;98615.78;5072161;28;20052;-78
2021/07/07 00:20:41;;;;;;;1.17;0.60;;;;;;;13.16;100.00;98616.31;5072221;28;20384;-78
2021/07/07 00:23:44;;;;;;;0.22;0.10;;;;;;;13.23;100.00;98610.91;5072354;28;20048;-77
2021/07/07 00:26:47;;;;;;;1.00;0.73;;;;;;;13.18;100.00;98619.34;5071637;28;20051;-79
2021/07/07 00:29:53;;;;;;;0.32;0.20;;;;;;;13.31;100.00;98616.69;5072245;28;20397;-77
2021/07/07 00:32:57;;;;;;;0.25;0.17;;;;;;;13.28;100.00;98629.66;5062094;28;20047;-77
2021/07/07 00:36:01;;;;;;;0.10;0.10;;;;;;;13.40;100.00;98631.09;5072392;28;20063;-78
2021/07/07 00:39:05;;;;;;;1.48;0.35;;;;;;;13.29;100.00;98628.41;5072154;28;20055;-79
2021/07/07 00:42:09;;;;;;;1.02;0.35;;;;;;;13.35;100.00;98623.50;5071817;28;20511;-79
2021/07/07 00:45:13;;;;;;;1.48;0.28;;;;;;;13.38;100.00;98632.88;5064622;28;20067;-78
2021/07/07 00:48:17;;;;;;;0.52;0.45;;;;;;;13.28;100.00;98635.25;5054677;28;20060;-77
2021/07/07 00:51:20;;;;;;;0.35;0.35;;;;;;;13.45;100.00;98633.03;5055870;28;20428;-78
2021/07/07 00:54:25;;;;;;;0.50;0.25;;;;;;;13.35;100.00;98634.69;5054145;28;20064;-78
2021/07/07 00:57:34;;;;;;;4.75;0.82;;;;;;;13.38;100.00;98621.69;5053770;28;20052;-78
2021/07/07 01:00:37;;;;;;;0.47;0.30;;;;;;;13.34;100.00;98627.56;5053657;28;20052;-78
2021/07/07 01:03:41;;;;;;;4.30;0.52;;;;;;;13.30;100.00;98624.31;5056490;28;20052;-77
2021/07/07 01:06:44;;;;;;;0.88;0.50;;;;;;;13.52;100.00;98621.28;5066798;28;20043;-77
2021/07/07 01:09:49;;;;;;;1.65;0.55;;;;;;;13.43;100.00;98621.63;5073559;28;20392;-77
2021/07/07 01:12:53;;;;;;;5.00;0.60;;;;;;;13.46;100.00;98622.63;5053319;28;20048;-77
2021/07/07 01:15:58;;;;;;;2.40;0.43;;;;;;;13.36;100.00;98624.25;5052783;28;20056;-77
2021/07/07 01:19:02;;;;;;;0.70;0.50;;;;;;;13.39;100.00;98623.97;5053505;28;20056;-77
2021/07/07 01:22:06;;;;;;;1.48;0.30;;;;;;;13.41;100.00;98631.81;5053312;28;20051;-77
2021/07/07 01:25:12;;;;;;;0.35;0.20;;;;;;;13.53;100.00;98645.19;5052309;28;20064;-78
2021/07/07 01:28:17;;;;;;;0.65;0.57;;;;;;;13.41;100.00;98643.00;5053101;28;20048;-77
2021/07/07 01:31:20;;;;;;;1.60;0.40;;;;;;;13.36;100.00;98641.78;5053338;28;20060;-78
2021/07/07 01:34:24;;;;;;;1.88;0.40;;;;;;;13.44;100.00;98642.72;5053336;28;20044;-78
2021/07/07 01:37:27;;;;;;;0.28;0.20;;;;;;;13.45;100.00;98649.81;5058726;28;20056;-78
2021/07/07 01:40:31;;;;;;;1.38;0.45;;;;;;;13.49;100.00;98649.53;5071996;28;20495;-78
2021/07/07 01:43:34;;;;;;;1.25;0.25;;;;;;;13.51;100.00;98650.50;5073035;28;20812;-78
2021/07/07 01:46:38;;;;;;;4.13;0.98;;;;;;;13.52;100.00;98649.25;5072235;28;20052;-78
2021/07/07 01:49:41;;;;;;;1.33;0.43;;;;;;;13.48;100.00;98654.38;5069061;28;20051;-78
2021/07/07 01:52:46;;;;;;;0.95;0.40;;;;;;;13.59;100.00;98659.09;5069253;28;20055;-78
2021/07/07 01:55:50;;;;;;;0.43;0.40;;;;;;;13.48;100.00;98659.97;5071816;28;20043;-78
2021/07/07 01:58:54;;;;;;;0.82;0.40;;;;;;;13.54;100.00;98663.47;5072393;28;20511;-78
2021/07/07 02:01:57;;;;;;;2.40;0.35;;;;;;;13.51;100.00;98667.28;5072438;28;20059;-78
2021/07/07 02:05:01;;;;;;;6.22;1.05;;;;;;;13.51;100.00;98666.56;5072839;28;20060;-78
2021/07/07 02:08:07;;;;;;;0.32;0.22;;;;;;;13.66;100.00;98661.31;5072340;28;20075;-78
2021/07/07 02:11:10;;;;;;;2.47;0.32;;;;;;;13.68;100.00;98667.13;5083966;28;20400;-77
2021/07/07 02:14:17;;;;;;;1.95;0.68;;;;;;;13.57;100.00;98673.63;5072297;28;20511;-77
2021/07/07 02:17:20;;;;;;;1.65;0.43;;;;;;;13.48;100.00;98671.16;5070595;28;20059;-78
2021/07/07 02:20:25;;;;;;;0.88;0.55;;;;;;;13.65;100.00;98674.53;5065871;28;20071;-78
2021/07/07 02:23:28;;;;;;;1.13;0.43;;;;;;;13.73;100.00;98674.69;5074339;28;20050;-78
2021/07/07 02:26:32;;;;;;;0.80;0.40;;;;;;;13.72;100.00;98683.63;5074167;28;20044;-78
2021/07/07 02:29:35;;;;;;;1.08;0.60;;;;;;;13.74;100.00;98675.47;5074029;28;20074;-78
2021/07/07 02:32:39;;;;;;;1.27;0.50;;;;;;;13.75;100.00;98679.78;5074230;28;20496;-78
2021/07/07 02:35:44;;;;;;;0.70;0.35;;;;;;;13.77;100.00;98685.59;5074162;28;20043;-78
2021/07/07 02:38:47;;;;;;;1.15;0.30;;;;;;;13.69;100.00;98688.22;5068465;28;20044;-78
2021/07/07 02:41:52;;;;;;;2.33;0.77;;;;;;;13.79;100.00;98681.00;5071900;28;20055;-78
2021/07/07 02:44:55;;;;;;;0.82;0.65;;;;;;;13.64;100.00;98689.06;5064522;28;20059;-78
2021/07/07 02:47:59;;;;;;;1.65;0.43;;;;;;;13.58;100.00;98691.91;5053864;28;20052;-78
2021/07/07 02:51:02;;;;;;;1.45;0.60;;;;;;;13.69;100.00;98697.38;5053652;28;20056;-77
2021/07/07 02:54:06;;;;;;;1.02;0.52;;;;;;;13.70;100.00;98703.75;5053785;28;20743;-78
2021/07/07 02:57:10;;;;;;;0.95;0.40;;;;;;;13.75;100.00;98704.97;5053692;28;20052;-77
2021/07/07 03:00:14;;;;;;;1.95;0.52;;;;;;;13.73;100.00;98701.94;5053602;28;20052;-78
2021/07/07 03:03:23;;;;;;;3.10;0.50;;;;;;;13.70;100.00;98709.34;5053824;28;20052;-78
2021/07/07 03:06:27;;;;;;;1.08;0.82;;;;;;;13.67;100.00;98705.53;5053664;28;20048;-78
2021/07/07 03:09:30;;;;;;;1.50;0.85;;;;;;;13.76;100.00;98712.06;5052796;28;20048;-78
2021/07/07 03:12:34;;;;;;;1.05;0.47;;;;;;;13.77;100.00;98719.19;5071274;28;20111;-78
2021/07/07 03:15:38;;;;;;;0.90;0.45;;;;;;;13.75;100.00;98722.53;5073469;28;20055;-78
2021/07/07 03:18:41;;;;;;;1.75;0.75;;;;;;;13.77;100.00;98722.00;5064689;28;20507;-78
2021/07/07 03:21:45;;;;;;;1.52;0.40;;;;;;;13.77;100.00;98735.97;5053221;28;20051;-78
2021/07/07 03:24:48;;;;;;;1.90;0.57;;;;;;;13.65;100.00;98733.28;5067608;28;20052;-79
2021/07/07 03:27:51;;;;;;;1.13;0.70;;;;;;;13.75;100.00;98744.91;5067401;28;20542;-78
2021/07/07 03:30:55;;;;;;;1.98;0.75;;;;;;;13.79;100.00;98753.75;5073327;28;20052;-79
2021/07/07 03:48:30;;;;;;;0.60;0.25;;;;;;;13.74;100.00;98762.19;5090177;27;20381;-60
2021/07/07 03:51:33;;;;;;;4.18;0.43;;;;;;;13.79;100.00;98772.59;5089675;28;20039;-63
2021/07/07 03:54:37;;;;;;;2.78;0.88;;;;;;;13.80;100.00;98774.09;5089510;28;20047;-62
2021/07/07 03:57:41;;;;;;;0.60;0.40;;;;;;;13.82;100.00;98765.97;5068989;28;20420;-61
2021/07/07 04:00:45;;;;;;;0.52;0.43;;;;;;;13.72;100.00;98773.16;5069994;28;20067;-61
2021/07/07 04:03:48;;;;;;;1.10;0.75;;;;;;;13.81;100.00;98786.81;5080239;28;20051;-61
2021/07/07 04:06:56;;;;;;;1.85;0.20;;;;;;;13.79;100.00;98778.94;5069581;28;20047;-60
2021/07/07 04:09:59;;;;;;;2.05;0.68;;;;;;;13.85;100.00;98787.28;5069422;28;20056;-60
2021/07/07 04:13:03;;;;;;;0.98;0.30;;;;;;;13.89;100.00;98782.91;5072507;28;20051;-60
2021/07/07 04:16:06;;;;;;;1.25;0.75;;;;;;;13.82;100.00;98785.53;5089386;28;20043;-60
2021/07/07 04:19:09;;;;;;;5.10;0.98;;;;;;;13.83;100.00;98787.03;5089886;28;20055;-61
2021/07/07 04:22:13;;;;;;;1.13;0.68;;;;;;;13.95;100.00;98788.44;5069288;28;20060;-61
2021/07/07 04:25:17;;;;;;;1.70;0.60;;;;;;;13.91;100.00;98794.34;5069429;28;20044;-62
2021/07/07 04:28:20;;;;;;;2.60;1.05;;;;;;;13.83;100.00;98801.81;5068141;28;20048;-61
2021/07/07 04:31:24;;;;;;;4.25;1.10;;;;;;;13.88;100.00;98808.63;5067283;28;20079;-61
2021/07/07 04:34:30;;;;;;;2.58;1.05;;;;;;;13.90;100.00;98804.03;5069062;28;20052;-62
2021/07/07 04:37:33;;;;;;;3.53;1.08;;;;;;;13.90;100.00;98811.66;5067645;28;20401;-62
2021/07/07 04:40:37;;;;;;;0.28;0.13;;;;;;;13.87;100.00;98812.69;5068424;28;20401;-62
2021/07/07 04:43:40;;;;;;;4.00;0.88;;;;;;;13.84;100.00;98820.09;5068477;28;20550;-62
2021/07/07 04:46:44;;;;;;;2.83;1.02;;;;;;;13.87;100.00;98813.47;5067975;28;20408;-62
2021/07/07 04:49:47;;;;;;;3.03;1.23;;;;;;;13.83;100.00;98815.03;5055067;28;20056;-62
2021/07/07 04:52:51;;;;;;;0.85;0.57;;;;;;;13.80;100.00;98825.22;5067646;28;20081;-61
2021/07/07 04:55:54;;;;;;;3.83;1.20;;;;;;;13.95;100.00;98831.19;5074786;28;20056;-62
2021/07/07 04:58:58;;;;;;;1.58;0.45;;;;;;;14.05;100.00;98828.81;5075196;28;20055;-62
2021/07/07 05:02:01;;;;;;;5.55;1.25;;;;;;;14.08;100.00;98827.75;5074660;28;20059;-62
2021/07/07 05:05:06;;;;;;;2.35;1.30;;;;;;;14.04;100.00;98832.88;5074051;28;20051;-62
2021/07/07 05:08:09;;;;;;;3.78;1.48;;;;;;;14.03;100.00;98836.97;5074950;28;20048;-62
2021/07/07 05:11:15;;;;;;;4.38;0.80;;;;;;;14.11;100.00;98843.50;5075280;28;20063;-62
2021/07/07 05:14:19;;;;;;;2.25;0.77;;;;;;;14.11;100.00;98849.13;5074072;28;20404;-62
2021/07/07 05:17:24;;;;;;;1.75;0.85;;;;;;;14.09;100.00;98843.28;5074919;28;20039;-62
2021/07/07 05:20:27;;;;;;;1.25;0.52;;;;;;;14.08;100.00;98844.56;5074758;28;20388;-61
2021/07/07 05:23:33;;;;;;;1.20;0.50;;;;;;;14.14;100.00;98859.28;5054554;28;20068;-62
2021/07/07 05:26:37;;;;;;;4.10;0.63;;;;;;;14.18;100.00;98854.13;5054444;28;20052;-62
2021/07/07 05:29:41;;;;;;;2.83;0.40;;;;;;;14.25;100.00;98864.78;5054828;28;20052;-62
2021/07/07 05:32:44;;;;;;;1.38;0.55;;;;;;;14.21;100.00;98865.03;5064974;28;20581;-62
2021/07/07 05:35:47;;;;;;;3.67;1.83;;;;;;;14.32;100.00;98875.41;5074274;28;20039;-62
2021/07/07 05:38:51;;;;;;;6.85;1.15;;;;;;;14.38;100.00;98874.06;5074152;28;20044;-62
2021/07/07 05:41:56;;;;;;;4.28;0.95;;;;;;;14.40;100.00;98877.09;5074206;28;20384;-62
2021/07/07 05:44:59;;;;;;;1.10;0.90;;;;;;;14.46;100.00;98884.69;5072247;28;20503;-62
2021/07/07 05:48:04;;;;;;;3.40;0.85;;;;;;;14.50;100.00;98880.31;5073976;28;20052;-62
2021/07/07 05:51:07;;;;;;;1.58;0.57;;;;;;;14.53;100.00;98887.66;5074194;28;20055;-62
2021/07/07 05:54:10;;;;;;;6.00;1.80;;;;;;;14.61;100.00;98885.78;5074720;28;20044;-62
2021/07/07 05:57:14;;;;;;;3.42;1.08;;;;;;;14.71;100.00;98892.53;5065119;28;20036;-62
2021/07/07 06:00:21;;;;;;;5.05;0.68;;;;;;;14.67;100.00;98894.13;5053595;28;20052;-62
2021/07/07 06:03:25;;;;;;;3.60;1.40;;;;;;;14.70;100.00;98893.84;5051692;28;20488;-62
2021/07/07 06:06:28;;;;;;;2.95;0.85;;;;;;;14.81;100.00;98896.50;5052526;28;20048;-66
2021/07/07 06:09:31;;;;;;;3.10;1.20;;;;;;;14.88;100.00;98898.72;5053134;28;20052;-65
2021/07/07 06:12:35;;;;;;;6.60;1.58;;;;;;;14.89;100.00;98905.84;5053676;28;20047;-65
2021/07/07 06:15:39;;;;;;;3.13;0.63;;;;;;;14.90;100.00;98912.22;5052883;28;20044;-65
2021/07/07 06:18:43;;;;;;;3.28;1.17;;;;;;;15.05;100.00;98910.47;5053583;28;20048;-65
2021/07/07 06:21:47;;;;;;;6.68;1.05;;;;;;;15.06;100.00;98916.84;5054049;28;20068;-65
2021/07/07 06:24:50;;;;;;;2.75;0.70;;;;;;;15.02;100.00;98925.56;5071950;28;20044;-64
2021/07/07 06:27:54;;;;;;;2.35;0.82;;;;;;;15.08;100.00;98929.06;5073806;28;20047;-65
2021/07/07 06:30:57;;;;;;;3.88;1.75;;;;;;;15.16;100.00;98935.56;5073882;28;20052;-64
2021/07/07 06:34:01;;;;;;;3.42;1.15;;;;;;;15.19;100.00;98940.13;5053730;28;20052;-65
2021/07/07 06:37:06;;;;;;;3.15;1.38;;;;;;;15.12;100.00;98943.53;5053365;28;20048;-65
2021/07/07 06:40:10;;;;;;;4.35;1.33;;;;;;;15.14;100.00;98952.19;5054033;28;20064;-65
2021/07/07 06:43:14;;;;;;;4.28;1.27;;;;;;;15.20;100.00;98952.84;5053455;28;20048;-65
2021/07/07 06:46:17;;;;;;;3.22;1.15;;;;;;;15.24;100.00;98960.22;5053177;28;20059;-64
2021/07/07 06:49:20;;;;;;;2.03;1.38;;;;;;;15.13;100.00;98964.69;5052544;28;20059;-65
2021/07/07 06:52:24;;;;;;;1.55;0.73;;;;;;;15.15;100.00;98972.56;5053318;28;20059;-64
2021/07/07 06:55:27;;;;;;;3.47;0.65;;;;;;;15.22;100.00;98982.44;5052939;28;20385;-65
2021/07/07 06:58:32;;;;;;;1.88;0.82;;;;;;;15.43;100.00;98980.63;5053014;28;20044;-65
2021/07/07 07:01:35;;;;;;;4.72;1.38;;;;;;;15.61;100.00;98977.13;5053134;28;20056;-64
2021/07/07 07:04:39;;;;;;;3.22;0.68;;;;;;;15.80;100.00;98980.66;5052990;28;20102;-65
2021/07/07 07:07:43;;;;;;;3.35;0.88;;;;;;;15.80;100.00;98975.81;5053098;28;20059;-65
2021/07/07 07:10:46;;;;;;;1.00;0.50;;;;;;;15.87;100.00;98983.59;5067701;28;20043;-65
2021/07/07 07:13:49;;;;;;;5.43;0.77;;;;;;;15.91;100.00;98986.13;5073097;28;20679;-65
2021/07/07 07:16:53;;;;;;;2.25;0.30;;;;;;;15.99;100.00;98992.63;5073089;28;20047;-64
2021/07/07 07:19:56;;;;;;;2.67;0.43;;;;;;;16.02;100.00;98990.81;5072181;28;20051;-65
2021/07/07 07:23:01;;;;;;;3.22;1.02;;;;;;;16.14;100.00;98998.53;5073169;28;20499;-64
2021/07/07 07:26:04;;;;;;;2.47;0.40;;;;;;;16.25;100.00;99003.19;5072850;28;20047;-65
2021/07/07 07:29:08;;;;;;;6.03;0.75;;;;;;;16.18;100.00;99010.19;5052450;28;20048;-64
2021/07/07 07:32:11;;;;;;;2.47;0.63;;;;;;;16.14;100.00;99014.63;5058721;28;20051;-64
2021/07/07 07:35:17;;;;;;;0.90;0.50;;;;;;;16.24;100.00;99021.38;5072199;28;20063;-64
2021/07/07 07:38:32;;;;;;;0.90;0.30;;;;;;;16.27;100.00;99023.84;5072694;28;20381;-64
2021/07/07 07:41:38;;;;;;;2.92;0.68;;;;;;;16.36;100.00;99031.88;5070474;28;20054;-64
2021/07/07 07:44:42;;;;;;;3.05;0.63;;;;;;;16.57;100.00;99030.03;5072684;28;20052;-64
2021/07/07 07:47:46;;;;;;;1.65;0.73;;;;;;;16.74;100.00;99037.44;5071615;28;20047;-64
2021/07/07 07:50:50;;;;;;;1.52;0.40;;;;;;;16.96;100.00;99037.00;5072652;28;20071;-64
2021/07/07 07:53:54;;;;;;;1.67;0.50;;;;;;;17.21;100.00;99032.72;5072668;28;20051;-64
2021/07/07 07:56:57;;;;;;;1.70;0.43;;;;;;;17.31;100.00;99039.41;5072755;28;20110;-65
2021/07/07 08:00:00;;;;;;;0.35;0.28;;;;;;;17.44;100.00;99036.59;5072699;28;20511;-64
2021/07/07 08:03:03;;;;;;;1.63;0.50;;;;;;;17.55;100.00;99033.59;5072464;28;20059;-65
2021/07/07 08:06:07;;;;;;;1.05;0.40;;;;;;;17.67;100.00;99031.31;5072131;28;20044;-65
2021/07/07 08:09:11;;;;;;;2.47;1.13;;;;;;;17.85;100.00;99041.66;5069964;28;20214;-65
2021/07/07 08:12:15;;;;;;;0.45;0.10;;;;;;;17.99;100.00;99041.09;5063610;28;20043;-65
2021/07/07 08:15:19;;;;;;;3.20;0.75;;;;;;;18.02;100.00;99045.63;5071026;28;20059;-64
2021/07/07 08:18:22;;;;;;;0.73;0.22;;;;;;;18.05;100.00;99038.91;5072263;28;20047;-64
2021/07/07 08:21:26;;;;;;;3.60;0.45;;;;;;;17.91;100.00;99040.22;5071913;28;20047;-64
2021/07/07 08:24:30;;;;;;;0.60;0.30;;;;;;;17.94;100.00;99050.41;5073691;28;20059;-64
2021/07/07 08:27:33;;;;;;;1.30;0.28;;;;;;;17.99;100.00;99058.00;5075485;28;20361;-64
2021/07/07 08:30:36;;;;;;;0.60;0.10;;;;;;;18.05;100.00;99061.44;5075728;28;20047;-64
2021/07/07 08:33:40;;;;;;;0.80;0.20;;;;;;;18.13;100.00;99061.50;5075277;28;20043;-63
2021/07/07 08:36:43;;;;;;;1.45;0.40;;;;;;;18.20;100.00;99063.66;5075090;28;20055;-64
2021/07/07 08:39:46;;;;;;;0.90;0.10;;;;;;;18.27;100.00;99063.00;5075256;28;20047;-64
2021/07/07 08:42:50;;;;;;;1.33;0.68;;;;;;;18.34;100.00;99064.38;5075635;28;20043;-64
2021/07/07 08:45:54;;;;;;;2.83;0.28;;;;;;;18.52;100.00;99069.09;5075491;28;20060;-64
2021/07/07 08:48:58;;;;;;;1.73;0.30;;;;;;;18.54;100.00;99072.13;5076016;28;20048;-60
2021/07/07 08:52:01;;;;;;;0.52;0.20;;;;;;;18.35;100.00;99082.78;5074514;28;20143;-62
2021/07/07 08:55:10;;;;;;;0.55;0.10;;;;;;;17.94;100.00;99089.84;5075444;28;20043;-61
2021/07/07 08:58:13;;;;;;;0.47;0.20;;;;;;;17.83;100.00;99092.91;5073877;28;20047;-61
2021/07/07 09:01:17;;;;;;;0.98;0.30;;;;;;;17.75;100.00;99105.38;5075367;28;20059;-61
2021/07/07 09:04:41;;;;;;;0.63;0.38;;;;;;;17.72;100.00;99100.81;5073868;28;20119;-61
2021/07/07 09:07:45;;;;;;;4.72;0.38;;;;;;;17.93;100.00;99093.97;5075192;28;20051;-61
2021/07/07 09:10:48;;;;;;;1.33;0.63;;;;;;;18.20;100.00;99103.13;5074443;28;20052;-61
2021/07/07 09:14:08;;;;;;;0.60;0.55;;;;;;;18.47;100.00;99103.84;5074895;28;20400;-61
2021/07/07 09:17:15;;;;;;;1.38;0.20;;;;;;;18.56;100.00;99109.00;5075115;28;20048;-61
2021/07/07 09:20:22;;;;;;;1.67;0.10;;;;;;;18.63;100.00;99111.13;5073352;28;20043;-61
2021/07/07 09:23:29;;;;;;;2.60;0.28;;;;;;;18.61;100.00;99113.75;5074307;28;20511;-61
2021/07/07 09:26:34;;;;;;;2.95;0.30;;;;;;;18.78;100.00;99116.91;5074653;28;20522;-61
2021/07/07 09:29:42;;;;;;;2.28;0.43;;;;;;;19.28;100.00;99110.75;5074494;28;20043;-61
2021/07/07 09:32:49;;;;;;;0.60;0.22;;;;;;;19.32;100.00;99105.50;5074295;28;20052;-61
2021/07/07 09:36:19;;;;;;;0.45;0.10;;;;;;;19.06;100.00;99119.81;5074795;28;20063;-61
2021/07/07 09:39:23;;;;;;;0.10;0.10;;;;;;;18.69;100.00;99118.16;5073861;28;20055;-61
2021/07/07 09:42:27;;;;;;;2.75;0.38;;;;;;;18.22;100.00;99122.31;5074453;28;20397;-61
2021/07/07 09:45:30;;;;;;;0.55;0.30;;;;;;;17.82;100.00;99128.00;5074081;28;20043;-61
2021/07/07 09:48:37;;;;;;;0.95;0.10;;;;;;;17.59;100.00;99132.56;5074301;28;20043;-61
2021/07/07 09:51:48;;;;;;;1.08;0.40;;;;;;;17.44;100.00;99144.34;5073717;28;20052;-61
2021/07/07 09:54:53;;;;;;;0.90;0.20;;;;;;;17.53;100.00;99146.00;5074288;28;20063;-61
2021/07/07 09:57:56;;;;;;;0.28;0.10;;;;;;;17.77;100.00;99147.84;5074123;28;20048;-61
2021/07/07 10:01:01;;;;;;;0.45;0.30;;;;;;;18.04;100.00;99150.09;5072924;28;20075;-61
2021/07/07 10:04:07;;;;;;;0.50;0.20;;;;;;;18.35;100.00;99142.75;5074070;28;20495;-61
2021/07/07 10:07:13;;;;;;;0.50;0.17;;;;;;;19.25;100.00;99137.25;5074252;28;20044;-61
2021/07/07 10:10:18;;;;;;;0.30;0.10;;;;;;;19.93;100.00;99132.09;5073862;28;20051;-61
2021/07/07 10:13:22;;;;;;;0.10;0.10;;;;;;;20.42;100.00;99143.28;5073787;28;20051;-61
2021/07/07 10:16:26;;;;;;;0.68;0.10;;;;;;;20.92;100.00;99139.59;5072119;28;20500;-61
2021/07/07 10:19:31;;;;;;;0.50;0.10;;;;;;;20.89;100.00;99137.91;5073860;28;20051;-62
2021/07/07 10:22:35;;;;;;;0.35;0.10;;;;;;;20.29;100.00;99155.47;5073554;28;20052;-63
2021/07/07 10:25:39;;;;;;;0.20;0.08;;;;;;;19.92;100.00;99160.91;5073512;28;20047;-63
2021/07/07 10:28:43;;;;;;;0.17;0.10;;;;;;;19.66;100.00;99156.97;5073609;28;20409;-63
2021/07/07 10:31:58;;;;;;;0.10;0.10;;;;;;;19.85;100.00;99167.28;5072501;28;20039;-60
2021/07/07 10:35:05;;;;;;;0.80;0.20;;;;;;;19.96;100.00;99172.63;5053562;28;20051;-62
2021/07/07 10:38:09;;;;;;;0.20;0.20;;;;;;;20.09;100.00;99169.69;5053226;28;20385;-61
2021/07/07 10:41:12;;;;;;;2.92;0.35;;;;;;;20.48;100.00;99177.78;5053759;28;20629;-61
2021/07/07 10:44:21;;;;;;;0.40;0.10;;;;;;;20.33;100.00;99172.84;5053334;28;20393;-62
2021/07/07 10:47:32;;;;;;;1.80;0.13;;;;;;;20.01;100.00;99175.28;5052417;28;20048;-61
2021/07/07 10:50:36;;;;;;;0.32;0.22;;;;;;;19.95;100.00;99179.56;5053302;28;20060;-61
2021/07/07 10:53:39;;;;;;;2.58;0.10;;;;;;;19.68;100.00;99184.69;5052189;28;20052;-62
2021/07/07 10:56:46;;;;;;;0.30;0.00;;;;;;;19.14;100.00;99190.44;5052504;28;20404;-61
2021/07/07 10:59:55;;;;;;;0.10;0.10;;;;;;;18.67;100.00;99198.97;5052254;28;20500;-62
2021/07/07 11:03:46;;;;;;;0.28;0.10;;;;;;;18.33;100.00;99192.53;5051864;28;20052;-61
2021/07/07 11:06:50;;;;;;;0.10;0.10;;;;;;;17.99;100.00;99204.50;5053143;28;20044;-61
2021/07/07 11:09:56;;;;;;;0.10;0.00;;;;;;;17.81;100.00;99205.38;5053184;28;20048;-61
2021/07/07 11:13:20;;;;;;;0.10;0.00;;;;;;;18.30;100.00;99204.91;5052892;28;20044;-61
2021/07/07 11:16:24;;;;;;;0.30;0.00;;;;;;;18.76;100.00;99204.16;5052145;28;20084;-62
2021/07/07 11:19:37;;;;;;;0.30;0.10;;;;;;;19.15;100.00;99204.00;5052229;28;20056;-61
2021/07/07 11:22:43;;;;;;;0.15;0.10;;;;;;;19.65;100.00;99206.34;5053015;28;20500;-61
2021/07/07 11:25:46;;;;;;;0.30;0.10;;;;;;;20.11;100.00;99201.72;5052611;28;20052;-61
2021/07/07 11:28:49;;;;;;;0.20;0.10;;;;;;;20.47;100.00;99209.44;5052223;28;20044;-62
2021/07/07 11:31:54;;;;;;;0.52;0.00;;;;;;;20.68;100.00;99207.28;5056197;28;20067;-59
2021/07/07 11:35:04;;;;;;;0.25;0.10;;;;;;;20.34;100.00;99213.94;5072889;28;20047;-61
2021/07/07 11:38:13;;;;;;;0.43;0.10;;;;;;;19.92;100.00;99217.44;5072680;28;20499;-59
2021/07/07 11:41:16;;;;;;;0.32;0.15;;;;;;;19.66;100.00;99207.84;5072834;28;20051;-61
2021/07/07 11:44:41;;;;;;;2.05;0.20;;;;;;;19.37;100.00;99211.19;5072652;28;20060;-60
2021/07/07 11:47:50;;;;;;;0.20;0.10;;;;;;;19.20;100.00;99220.06;5072154;28;20052;-60
2021/07/07 11:50:59;;;;;;;0.15;0.10;;;;;;;19.25;100.00;99227.59;5072704;28;20052;-60
2021/07/07 11:54:03;;;;;;;0.10;0.00;;;;;;;19.19;100.00;99215.69;5071265;28;20048;-60
2021/07/07 11:57:07;;;;;;;0.10;0.10;;;;;;;19.01;100.00;99222.31;5072776;28;20047;-60
2021/07/07 12:00:10;;;;;;;0.50;0.10;;;;;;;18.72;100.00;99234.78;5076218;28;20039;-60
2021/07/07 12:03:16;;;;;;;2.30;0.20;;;;;;;18.52;100.00;99239.03;5076225;28;20115;-60
2021/07/07 12:06:34;;;;;;;3.45;0.57;;;;;;;18.07;100.00;99253.28;5075078;28;20055;-59
2021/07/07 12:09:37;;;;;;;0.60;0.20;;;;;;;17.73;100.00;99266.47;5076121;28;20044;-60
2021/07/07 12:12:41;;;;;;;0.45;0.10;;;;;;;17.58;100.00;99271.84;5076406;28;20756;-60
2021/07/07 12:15:45;;;;;;;3.95;0.85;;;;;;;17.47;100.00;99274.81;5075956;28;20066;-60
2021/07/07 12:19:01;;;;;;;1.67;0.63;;;;;;;17.54;100.00;99281.91;5075867;28;20052;-60
2021/07/07 12:22:07;;;;;;;1.23;0.13;;;;;;;17.63;100.00;99285.06;5075953;28;20491;-62
2021/07/07 12:25:11;;;;;;;1.35;0.10;;;;;;;17.76;100.00;99293.53;5075229;28;20094;-61
2021/07/07 12:28:14;;;;;;;1.55;0.20;;;;;;;17.93;100.00;99296.81;5055855;28;20048;-61
2021/07/07 12:31:18;;;;;;;3.50;0.35;;;;;;;17.93;100.00;99291.19;5056012;28;20043;-62
2021/07/07 12:34:26;;;;;;;3.35;0.52;;;;;;;18.39;100.00;99292.59;5055997;28;20051;-63
2021/07/07 12:37:31;;;;;;;0.90;0.20;;;;;;;18.71;100.00;99295.34;5055303;28;20389;-64
2021/07/07 12:40:34;;;;;;;1.63;0.38;;;;;;;18.98;100.00;99291.13;5055663;28;20052;-64
2021/07/07 12:43:55;;;;;;;0.25;0.10;;;;;;;19.31;100.00;99290.38;5055481;28;20052;-64
2021/07/07 12:47:00;;;;;;;1.42;0.25;;;;;;;19.99;100.00;99284.59;5055211;28;20071;-63
2021/07/07 12:50:14;;;;;;;1.77;0.30;;;;;;;20.28;100.00;99283.28;5054582;28;20512;-61
2021/07/07 12:53:32;;;;;;;0.93;0.30;;;;;;;20.66;100.00;99277.84;5054563;28;20052;-61
2021/07/07 12:56:36;;;;;;;2.25;0.20;;;;;;;20.82;100.00;99280.16;5054493;28;20051;-60
2021/07/07 12:59:52;;;;;;;0.20;0.00;;;;;;;20.21;100.00;99278.34;5061128;28;20039;-59
2021/07/07 13:03:02;;;;;;;1.38;0.10;;;;;;;19.60;100.00;99274.25;5074198;28;20404;-62
2021/07/07 13:06:22;;;;;;;0.10;0.10;;;;;;;19.17;100.00;99286.06;5074070;28;20056;-62
2021/07/07 13:09:25;;;;;;;0.20;0.20;;;;;;;18.83;100.00;99288.91;5074384;28;20055;-62
2021/07/07 13:12:29;;;;;;;0.90;0.10;;;;;;;18.75;100.00;99290.84;5063826;28;20063;-62
2021/07/07 13:15:32;;;;;;;0.40;0.20;;;;;;;18.83;100.00;99288.91;5055163;28;20060;-61
2021/07/07 13:18:51;;;;;;;0.10;0.08;;;;;;;18.73;100.00;99282.19;5055037;28;20052;-61
2021/07/07 13:21:57;;;;;;;0.20;0.10;;;;;;;18.59;100.00;99294.03;5055485;28;20059;-61
2021/07/07 13:25:01;;;;;;;0.65;0.15;;;;;;;18.58;100.00;99292.53;5055140;28;20043;-61
2021/07/07 13:28:25;;;;;;;1.23;0.20;;;;;;;18.37;100.00;99305.72;5055061;28;20040;-61
2021/07/07 13:31:29;;;;;;;0.38;0.25;;;;;;;18.22;100.00;99305.50;5055327;28;20051;-61
2021/07/07 13:34:39;;;;;;;1.75;0.10;;;;;;;18.09;100.00;99303.44;5074962;28;20369;-61
2021/07/07 13:37:43;;;;;;;2.78;0.57;;;;;;;18.06;100.00;99313.00;5074440;28;20098;-62
2021/07/07 13:40:47;;;;;;;1.05;0.32;;;;;;;18.16;100.00;99316.91;5072595;28;20056;-61
2021/07/07 13:43:50;;;;;;;1.90;0.55;;;;;;;18.29;100.00;99321.78;5074900;28;20039;-62
2021/07/07 13:46:54;;;;;;;7.82;1.25;;;;;;;18.60;100.00;99323.75;5074423;28;20197;-61
2021/07/07 13:49:59;;;;;;;2.67;0.60;;;;;;;18.83;100.00;99319.16;5073842;28;20369;-61
2021/07/07 13:53:02;;;;;;;1.95;0.93;;;;;;;18.83;100.00;99313.53;5074488;28;20040;-61
2021/07/07 13:56:06;;;;;;;0.30;0.20;;;;;;;18.88;100.00;99323.94;5074329;28;20106;-61
2021/07/07 13:59:09;;;;;;;3.40;0.93;;;;;;;18.66;100.00;99332.88;5074319;28;20043;-62
2021/07/07 14:02:13;;;;;;;2.05;0.45;;;;;;;18.33;100.00;99339.13;5073188;28;20496;-62
2021/07/07 14:05:17;;;;;;;1.00;0.40;;;;;;;17.98;100.00;99355.13;5073299;28;20047;-61
2021/07/07 14:08:20;;;;;;;0.82;0.50;;;;;;;17.65;100.00;99361.31;5073970;28;20047;-63
2021/07/07 14:27:35;;;;;;;2.60;0.50;;;;;;;16.32;100.00;99357.41;5109997;27;20372;-50
2021/07/07 14:30:38;;;;;;;0.57;0.52;;;;;;;16.58;100.00;99366.09;5110257;28;20249;-50
2021/07/07 14:33:42;;;;;;;13.75;0.98;;;;;;;16.51;100.00;99366.69;5110443;28;20403;-51
2021/07/07 14:36:46;;;;;;;1.67;0.40;;;;;;;16.54;100.00;99364.88;5110034;28;20510;-51
2021/07/07 14:39:49;;;;;;;1.10;0.32;;;;;;;16.53;100.00;99372.53;5109861;28;20050;-51
2021/07/07 14:42:53;;;;;;;1.00;0.43;;;;;;;16.60;100.00;99376.81;5109878;28;20042;-51
2021/07/07 14:45:56;;;;;;;1.08;0.70;;;;;;;16.50;100.00;99382.00;5109795;28;20050;-51
2021/07/07 14:49:00;;;;;;;1.05;0.90;;;;;;;16.58;100.00;99385.00;5110147;28;20058;-52
2021/07/07 14:52:03;;;;;;;3.33;1.30;;;;;;;16.65;100.00;99384.44;5109609;28;20050;-53